Meteo Giornale » Osservazioni meteo Stati Uniti (USA) » Red Bluff
ore: 10:54 - Osservazioni Meteo Red Bluff
Lat. 40° 9' N Lon. 122° 15' W Alt. 106 metri s.l.m.
25 °C
Sereno
Temp. 24 Ore
14 °C
34 °C
Sud/Sud-Ovest
7.4 Km/h
Dew point 9 °C
Umidità 36 %
Visibilità 10 Km
Il sole sorge alle ore 06:36
Il sole tramonta alle ore 19:42
| Data e Ora | Cielo e Fenomeni | T °C | DP °C | Um. % | Pres. hPa | Vis. km | Vento km/h | |
|---|---|---|---|---|---|---|---|---|
| Oggi h: 10:54 | Sereno | 25 | 9 | 36 | 1011 | 10 | S/SO 7.4 | |
| Oggi h: 09:54 | Sereno | 23 | 9 | 40 | 1011 | 10 | S 14.8 | |
| Oggi h: 08:54 | Sereno | 21 | 7 | 40 | 1011 | 10 | N 0 | |
| Oggi h: 07:54 | Sereno | 17 | 7 | 51 | 1011 | 10 | N 0 | |
| Oggi h: 06:54 | Sereno | 14 | 6 | 58 | 1011 | 10 | N 0 | |
| Oggi h: 05:54 | Sereno | 14 | 7 | 62 | 1010 | 10 | N 5.5 | |
| Oggi h: 04:54 | Sereno | 14 | 7 | 62 | 1010 | 10 | N 5.5 | |
| Oggi h: 03:54 | Sereno | 15 | 6 | 54 | 1010 | 10 | O/NO 9.3 | |
| Oggi h: 02:54 | Sereno | 16 | 7 | 55 | 1010 | 10 | O/NO 7.4 | |
| Oggi h: 01:54 | Sereno | 17 | 7 | 51 | 1010 | 10 | O/NO 7.4 | |
| Oggi h: 00:54 | Sereno | 17 | 8 | 55 | 1010 | 10 | O/NO 7.4 | |
| Ieri h: 23:54 | Sereno | 19 | 9 | 52 | 1010 | 10 | N 0 | |
| Ieri h: 22:54 | Sereno | 21 | 9 | 46 | 1010 | 10 | N 0 | |
| Ieri h: 21:54 | Sereno | 22 | 9 | 43 | 1009 | 10 | N 0 | |
| Ieri h: 20:54 | Sereno | 24 | 9 | 38 | 1009 | 10 | N 5.5 | |
| Ieri h: 19:54 | Sereno | 27 | 8 | 30 | 1008 | 10 | S 13 | |
| Ieri h: 18:54 | Sereno | 32 | 7 | 21 | 1008 | 10 | S/SE 16.7 | |
| Ieri h: 17:54 | Sereno | 33 | 4 | 16 | 1008 | 10 | S/SE 16.7 | |
| Ieri h: 16:54 | Sereno | 34 | 3 | 14 | 1009 | 10 | S/SO 13 | |
| Ieri h: 15:54 | Sereno | 34 | 2 | 13 | 1009 | 10 | SE 16.7 | |
| Ieri h: 14:54 | Sereno | 34 | 2 | 13 | 1010 | 10 | S 16.7 | |
| Ieri h: 13:54 | Sereno | 33 | 3 | 15 | 1011 | 10 | N 0 | |
| Ieri h: 12:54 | Sereno | 32 | 3 | 15 | 1011 | 10 | N 0 | |
| Ieri h: 11:54 | Sereno | 29 | 4 | 20 | 1012 | 10 | N 0 | |



